KSTC/STC METAR and TAF weather

Enter ICAO airport designator
Station Type Date Time Source
KSTC METAR 2021/05/11 00:53 UTC NOAA

KSTC 110053Z 04006KT 10SM BKN075 10/M08 A3025 RMK AO2 SLP258 T01001078


Station Type Date Time Source
KSTC Decoded METAR 2021/05/11 00:53 UTC NOAA

ST. CLOUD REGIONAL AIRPORT, MN, United States (KSTC) 45-33N 094-03W
May 10, 2021 - 08:53 PM EDT / 2021.05.11 0053 UTC
Wind: from the NE (040 degrees) at 7 MPH (6 KT):0
Visibility: 10 mile(s):0
Sky conditions: mostly cloudy
Temperature: 50.0 F (10.0 C)
Dew Point: 18.0 F (-7.8 C)
Relative Humidity: 27%
Pressure (altimeter): 30.25 in. Hg (1024 hPa)
ob: KSTC 110053Z 04006KT 10SM BKN075 10/M08 A3025 RMK AO2 SLP258 T01001078
cycle: 1

Station Type Date Time Source
KSTC TAF 2021/05/10 18:21 UTC NOAA

TAF KSTC 101720Z 1018/1118 03008KT P6SM BKN060
FM110200 VRB03KT P6SM SKC

Example: see airport list